Clipper Saga — LAFY6 — position and weather

sailwx.info

Track history (hours):
 
Tides and Currents Weather Stations Pressure Air Temp Water Temp Dewpoint Dewpoint Depression Visibility Wind Speed Wind Dir Waves Ship Positions

Clipper Saga

Last reported at 2018-Apr-24 03:00 UTC. Time now 2018-Apr-24 03:03 UTC.
Position N 50°44' W 001°03'.

Length 89 m; draft 5.9 m.

Type: Ship (hazmat cat C). MMSI: 246657008.

Date/timePositionNaut miles runAvg speedWind from/ knotsBaromVisibWave heightAir tempDewpointWater temp
2018-Apr-24 03:00N 50°44' W 001°03'612.2
2018-Apr-24 02:30N 50°46' W 001°12'5 9.2
2018-Apr-24 02:00N 50°48' W 001°17'2 4.4
2018-Apr-24 01:28N 50°50' W 001°20'0 0.0
2018-Apr-24 00:58N 50°50' W 001°20'0 0.0
2018-Apr-24 00:22N 50°50' W 001°20'0 0.0
2018-Apr-23 23:37N 50°50' W 001°20'0 0.0
2018-Apr-23 23:28N 50°50' W 001°20'0 0.0
2018-Apr-23 22:55N 50°50' W 001°20'0 0.0
2018-Apr-23 22:25N 50°50' W 001°20'0 0.0
2018-Apr-23 21:58N 50°50' W 001°20'0 0.0
2018-Apr-23 21:28N 50°50' W 001°20'0 0.0
2018-Apr-23 20:49N 50°50' W 001°20'0 0.0
2018-Apr-23 20:19N 50°50' W 001°20'0 0.0
2018-Apr-23 19:49N 50°50' W 001°20'0 0.0
2018-Apr-23 19:22N 50°50' W 001°20'0 0.0
2018-Apr-23 18:52N 50°50' W 001°20'0 0.0
2018-Apr-23 18:22N 50°50' W 001°20'0 0.0
2018-Apr-23 17:52N 50°50' W 001°20'0 0.0
2018-Apr-23 17:28N 50°50' W 001°20'0 0.0
2018-Apr-23 16:52N 50°50' W 001°20'0 0.0
2018-Apr-23 16:25N 50°50' W 001°20'0 0.0
2018-Apr-23 15:58N 50°50' W 001°20'0 0.0
2018-Apr-23 15:25N 50°50' W 001°20'0 0.0
2018-Apr-23 14:55N 50°50' W 001°20'0 0.0
2018-Apr-23 14:25N 50°50' W 001°20'0 0.0
2018-Apr-23 13:58N 50°50' W 001°20'0 0.0
2018-Apr-23 13:28N 50°50' W 001°20'0 0.0
2018-Apr-23 12:58N 50°50' W 001°20'0 0.0
2018-Apr-23 12:28N 50°50' W 001°20'0 0.0
2018-Apr-23 11:58N 50°50' W 001°20'0 0.0
2018-Apr-23 11:28N 50°50' W 001°20'0 0.0
2018-Apr-23 10:58N 50°50' W 001°20'0 0.0
2018-Apr-23 10:28N 50°50' W 001°20'0 0.0
2018-Apr-23 09:58N 50°50' W 001°20'0 0.0
2018-Apr-23 09:28N 50°50' W 001°20'0 0.0
2018-Apr-23 08:58N 50°50' W 001°20'0 0.0
2018-Apr-23 08:28N 50°50' W 001°20'0 0.0
2018-Apr-23 07:58N 50°50' W 001°20'0 0.0
2018-Apr-23 07:28N 50°50' W 001°20'0 0.0
2018-Apr-23 06:58N 50°50' W 001°20'0 0.0
2018-Apr-23 06:24N 50°50' W 001°20'1 1.3
2018-Apr-23 06:00N 50°50' W 001°19'4 7.8
2018-Apr-23 05:30N 50°46' W 001°16'713.2
2018-Apr-23 05:00N 50°45' W 001°06'3 5.3
2018-Apr-23 04:30N 50°43' W 001°03'0 0.0
2018-Apr-23 03:59N 50°43' W 001°03'0 0.0
2018-Apr-23 03:29N 50°43' W 001°03'0 0.1
2018-Apr-23 02:59N 50°43' W 001°03'0 0.0
2018-Apr-23 02:29N 50°43' W 001°03'0 0.0
2018-Apr-23 01:59N 50°43' W 001°03'0 0.0
2018-Apr-23 01:29N 50°43' W 001°03'0 0.0
2018-Apr-23 00:59N 50°43' W 001°03'0 0.0
2018-Apr-23 00:29N 50°43' W 001°03'0 0.0
2018-Apr-22 23:59N 50°43' W 001°03'0 0.0
2018-Apr-22 23:29N 50°43' W 001°03'0 0.0
2018-Apr-22 22:59N 50°43' W 001°03'0 0.0
2018-Apr-22 22:29N 50°43' W 001°03'0 0.0
2018-Apr-22 21:59N 50°43' W 001°03'0 0.0
2018-Apr-22 21:29N 50°43' W 001°03'0 0.0
2018-Apr-22 20:59N 50°43' W 001°03'0 0.0
2018-Apr-22 20:29N 50°43' W 001°03'0 0.0
2018-Apr-22 19:59N 50°43' W 001°03'0 0.0
2018-Apr-22 19:29N 50°43' W 001°03'0 0.0
2018-Apr-22 18:59N 50°43' W 001°03'0 0.1
2018-Apr-22 18:29N 50°43' W 001°03'0 0.1
2018-Apr-22 17:59N 50°43' W 001°03'0 0.0
2018-Apr-22 17:29N 50°43' W 001°03'0 0.0
2018-Apr-22 16:59N 50°43' W 001°03'1 3.0
2018-Apr-22 16:30N 50°43' W 001°01'611.1
2018-Apr-22 16:00N 50°39' W 000°55'611.1
2018-Apr-22 15:30N 50°38' W 000°46'510.6
2018-Apr-22 15:00N 50°37' W 000°38'510.4
2018-Apr-22 14:30N 50°36' W 000°30'5 9.9
2018-Apr-22 14:00N 50°35' W 000°22'5 9.3
2018-Apr-22 13:30N 50°34' W 000°15'5 9.6
2018-Apr-22 13:00N 50°33' W 000°08'5 9.3
2018-Apr-22 12:30N 50°33' W 000°00'5 9.6
2018-Apr-22 12:00N 50°34' E 000°07'510.0
2018-Apr-22 11:30N 50°35' E 000°14'510.5
2018-Apr-22 11:00N 50°36' E 000°22'611.2
2018-Apr-22 10:30N 50°38' E 000°31'611.6
2018-Apr-22 10:00N 50°40' E 000°39'612.1
2018-Apr-22 09:31N 50°44' E 000°47'612.6
2018-Apr-22 09:00N 50°48' E 000°55'712.6
2018-Apr-22 08:28N 50°52' E 001°04'912.3
2018-Apr-22 07:44N 50°58' E 001°15'311.9
2018-Apr-22 07:30N 50°59' E 001°18'611.3
2018-Apr-22 07:00N 51°03' E 001°25'510.8
2018-Apr-22 06:30N 51°07' E 001°31'5 9.8
2018-Apr-22 06:00N 51°10' E 001°37'5 9.5
2018-Apr-22 05:30N 51°12' E 001°43'5 9.7
2018-Apr-22 05:00N 51°16' E 001°48'5 9.8
2018-Apr-22 04:30N 51°20' E 001°52'510.3
2018-Apr-22 04:01N 51°25' E 001°56'510.9
2018-Apr-22 03:31N 51°29' E 002°01'611.3
2018-Apr-22 03:00N 51°33' E 002°08'611.9
2018-Apr-22 02:29N 51°38' E 002°14'612.5
2018-Apr-22 02:00N 51°42' E 002°21'713.3
2018-Apr-22 01:29N 51°48' E 002°28'713.4
2018-Apr-22 00:59N 51°52' E 002°36'713.5
2018-Apr-22 00:29N 51°57' E 002°43'613.2
2018-Apr-22 00:00N 52°01' E 002°52'612.9
2018-Apr-21 23:30N 52°02' E 003°02'712.8
2018-Apr-21 22:58N 52°02' E 003°13'612.6
2018-Apr-21 22:29N 52°03' E 003°23'612.5
2018-Apr-21 22:01N 52°04' E 003°32'612.2
2018-Apr-21 21:30N 52°04' E 003°42'611.9
2018-Apr-21 21:00N 52°04' E 003°52'5 9.8
2018-Apr-21 20:30N 52°01' E 003°59'612.3
2018-Apr-21 20:00N 51°58' E 004°08'611.8
2018-Apr-21 19:30N 51°55' E 004°15'4 6.3
2018-Apr-21 18:53N 51°54' E 004°21'0 0.0
2018-Apr-20 15:24N 51°54' E 004°21'1 1.4
2018-Apr-20 15:00N 51°54' E 004°21'5 9.5
2018-Apr-20 14:30N 51°56' E 004°13'510.5
2018-Apr-20 14:00N 51°59' E 004°06'510.5
2018-Apr-20 13:30N 52°00' E 003°58'510.9
2018-Apr-20 13:00N 51°60' E 003°49'4 7.8
2018-Apr-20 12:30N 51°57' E 003°45'0 0.3
2018-Apr-20 11:56N 51°57' E 003°45'0 0.0
2018-Apr-20 11:29N 51°57' E 003°45'0 0.0
2018-Apr-20 10:56N 51°57' E 003°45'0 0.1
2018-Apr-20 10:26N 51°57' E 003°45'0 0.0
2018-Apr-20 09:59N 51°57' E 003°45'0 0.1
2018-Apr-20 09:26N 51°57' E 003°45'0 0.2
2018-Apr-20 08:59N 51°57' E 003°45'0 0.1
2018-Apr-20 08:29N 51°57' E 003°45'0 0.0
2018-Apr-20 07:50N 51°57' E 003°45'0 0.0
2018-Apr-20 07:26N 51°57' E 003°45'0 0.0
2018-Apr-20 06:59N 51°57' E 003°45'0 0.0
2018-Apr-20 06:29N 51°57' E 003°45'0 0.0
2018-Apr-20 05:56N 51°57' E 003°45'0 0.0
2018-Apr-20 05:29N 51°57' E 003°45'0 0.0
2018-Apr-20 04:59N 51°57' E 003°45'0 0.0
2018-Apr-20 04:29N 51°57' E 003°45'0 0.0
2018-Apr-20 03:53N 51°57' E 003°45'0 0.0
2018-Apr-20 03:29N 51°57' E 003°45'0 0.1
2018-Apr-20 02:53N 51°57' E 003°45'0 0.1
2018-Apr-20 02:29N 51°57' E 003°45'0 0.0
2018-Apr-20 01:59N 51°57' E 003°45'0 0.1
2018-Apr-20 01:26N 51°57' E 003°45'0 0.0
2018-Apr-20 00:59N 51°57' E 003°45'0 0.0
2018-Apr-20 00:29N 51°57' E 003°45'0 0.0
2018-Apr-19 23:38N 51°57' E 003°45'0 0.0
2018-Apr-19 23:26N 51°57' E 003°45'0 0.0
2018-Apr-19 22:59N 51°57' E 003°45'0 0.0
2018-Apr-19 22:29N 51°57' E 003°45'0 0.0
2018-Apr-19 21:56N 51°57' E 003°45'0 0.0
2018-Apr-19 21:26N 51°57' E 003°45'0 0.0
2018-Apr-19 20:56N 51°57' E 003°45'0 0.1
2018-Apr-19 19:08N 51°57' E 003°45'0 0.0
2018-Apr-19 18:56N 51°57' E 003°45'0 0.0
2018-Apr-19 18:20N 51°57' E 003°45'0 0.0
2018-Apr-19 17:59N 51°57' E 003°45'0 0.0
2018-Apr-19 17:29N 51°57' E 003°45'0 0.0
2018-Apr-19 16:56N 51°57' E 003°45'0 0.0
2018-Apr-19 16:29N 51°57' E 003°45'0 0.0
2018-Apr-19 15:59N 51°57' E 003°45'0 0.0
2018-Apr-19 15:20N 51°57' E 003°45'0 0.0
2018-Apr-19 14:59N 51°57' E 003°45'0 0.1
2018-Apr-19 14:26N 51°57' E 003°45'0 0.1
2018-Apr-19 13:59N 51°57' E 003°45'0 0.0
2018-Apr-19 13:26N 51°57' E 003°45'0 0.0
2018-Apr-19 12:56N 51°57' E 003°45'0 0.0
2018-Apr-19 12:29N 51°57' E 003°45'0 0.1
2018-Apr-19 11:50N 51°57' E 003°45'0 0.0
2018-Apr-19 11:26N 51°57' E 003°45'0 0.0
2018-Apr-19 10:56N 51°57' E 003°45'0 0.0
2018-Apr-19 10:29N 51°57' E 003°45'0 0.0
2018-Apr-19 09:59N 51°57' E 003°45'0 0.0
2018-Apr-19 09:26N 51°57' E 003°45'0 0.0
2018-Apr-19 08:56N 51°57' E 003°45'0 0.1
2018-Apr-19 08:26N 51°57' E 003°45'0 0.0
2018-Apr-19 07:53N 51°57' E 003°45'0 0.0
2018-Apr-19 07:29N 51°57' E 003°45'0 0.1
2018-Apr-19 06:59N 51°57' E 003°45'0 0.1
2018-Apr-19 06:26N 51°57' E 003°45'0 0.1
2018-Apr-19 05:53N 51°57' E 003°45'0 0.0
2018-Apr-19 05:29N 51°57' E 003°45'0 0.0
2018-Apr-19 04:59N 51°57' E 003°45'0 0.0
2018-Apr-19 04:29N 51°57' E 003°45'0 0.0
2018-Apr-19 03:59N 51°57' E 003°45'0 0.0
2018-Apr-19 03:29N 51°57' E 003°45'0 0.0
2018-Apr-19 02:59N 51°57' E 003°45'0 0.1
2018-Apr-19 02:29N 51°57' E 003°45'0 0.1
2018-Apr-19 01:59N 51°57' E 003°45'0 0.1
2018-Apr-19 01:29N 51°57' E 003°45'0 0.1
2018-Apr-19 00:59N 51°57' E 003°45'0 0.0
2018-Apr-19 00:29N 51°57' E 003°45'0 0.0
2018-Apr-18 23:47N 51°57' E 003°45'0 0.0
2018-Apr-18 23:26N 51°57' E 003°45'0 0.0
2018-Apr-18 22:59N 51°57' E 003°45'0 0.0
2018-Apr-18 22:29N 51°57' E 003°45'0 0.0
2018-Apr-18 21:59N 51°57' E 003°45'0 0.0
2018-Apr-18 21:29N 51°57' E 003°45'0 0.0
2018-Apr-18 20:59N 51°57' E 003°45'0 0.2
2018-Apr-18 20:30N 51°57' E 003°44'5 9.4
2018-Apr-18 20:00N 51°57' E 003°37'4 8.6
2018-Apr-18 19:30N 51°57' E 003°30'510.3
2018-Apr-18 19:00N 51°55' E 003°22'510.7
2018-Apr-18 18:30N 51°54' E 003°13'611.7
2018-Apr-18 18:00N 51°53' E 003°04'610.0
2018-Apr-18 17:25N 51°52' E 002°55'5 9.9
2018-Apr-18 16:53N 51°54' E 002°47'610.5
2018-Apr-18 16:21N 51°57' E 002°39'6 2.1
2018-Apr-18 13:18N 52°01' E 002°31'310.2
2018-Apr-18 13:00N 51°59' E 002°35'610.0
2018-Apr-18 12:23N 51°56' E 002°43'410.2
2018-Apr-18 12:00N 51°54' E 002°49'611.2
2018-Apr-18 11:28N 51°53' E 002°58'612.6
2018-Apr-18 11:00N 51°51' E 003°08'611.6
2018-Apr-18 10:29N 51°46' E 003°13'5 9.7
2018-Apr-18 10:00N 51°42' E 003°17'611.5
2018-Apr-18 09:28N 51°37' E 003°22'511.1
2018-Apr-18 09:00N 51°32' E 003°26'511.0
2018-Apr-18 08:30N 51°28' E 003°31'5 9.2
2018-Apr-18 08:00N 51°26' E 003°38'612.3
2018-Apr-18 07:31N 51°22' E 003°45'4 6.2
2018-Apr-18 06:56N 51°20' E 003°49'0 0.1
2018-Apr-18 06:29N 51°20' E 003°49'3 5.3
2018-Apr-18 06:00N 51°17' E 003°50'2 3.7
2018-Apr-18 05:30N 51°15' E 003°50'3 6.7
2018-Apr-18 05:00N 51°12' E 003°48'3 6.9
2018-Apr-18 04:30N 51°09' E 003°47'0 0.2
2018-Apr-18 03:59N 51°09' E 003°47'0 0.0
2018-Apr-18 03:29N 51°09' E 003°47'0 0.0
2018-Apr-18 02:59N 51°09' E 003°47'0 0.0
2018-Apr-18 02:29N 51°09' E 003°47'0 0.0
2018-Apr-18 01:59N 51°09' E 003°47'0 0.0
2018-Apr-17 12:35N 51°09' E 003°47'0 0.1
2018-Apr-17 12:29N 51°09' E 003°47'0 0.0
2018-Apr-17 11:59N 51°09' E 003°47'0 0.0
2018-Apr-17 11:29N 51°09' E 003°47'0 0.0
2018-Apr-17 10:40N 51°09' E 003°47'0 0.0
2018-Apr-17 10:31N 51°09' E 003°47'1 1.2
2018-Apr-17 10:00N 51°09' E 003°47'3 6.8
2018-Apr-17 09:30N 51°13' E 003°48'2 4.4
2018-Apr-17 09:01N 51°15' E 003°49'3 6.8
2018-Apr-17 08:30N 51°18' E 003°50'2 3.3
2018-Apr-17 08:00N 51°20' E 003°49'0 0.0
2018-Apr-17 07:30N 51°20' E 003°49'1 1.0
2018-Apr-17 07:00N 51°20' E 003°49'1 2.0
2018-Apr-17 06:30N 51°21' E 003°48'3 6.5
2018-Apr-17 06:00N 51°23' E 003°43'4 7.4
2018-Apr-17 05:30N 51°25' E 003°39'4 7.3
2018-Apr-17 05:00N 51°27' E 003°34'3 6.6
2018-Apr-17 04:30N 51°29' E 003°30'4 7.2
2018-Apr-17 03:59N 51°32' E 003°26'5 7.6
2018-Apr-17 03:21N 51°36' E 003°23'3 8.5
2018-Apr-17 03:00N 51°38' E 003°20'5 8.6
2018-Apr-17 02:28N 51°42' E 003°16'4 7.8
2018-Apr-17 02:00N 51°46' E 003°14'5 8.2
2018-Apr-17 01:24N 51°49' E 003°08'3 6.9
2018-Apr-17 01:00N 51°51' E 003°04'16210.3
2018-Apr-16 09:14N 54°02' E 000°26'210.3
2018-Apr-16 09:00N 54°04' E 000°24'510.6
2018-Apr-16 08:30N 54°09' E 000°19'510.9
2018-Apr-16 08:00N 54°13' E 000°14'611.0
2018-Apr-16 07:30N 54°18' E 000°09'611.5
2018-Apr-16 07:00N 54°23' E 000°04'611.9
2018-Apr-16 06:30N 54°28' W 000°02'612.4
2018-Apr-16 06:00N 54°33' W 000°08'612.6
2018-Apr-16 05:30N 54°38' W 000°13'612.5
2018-Apr-16 05:00N 54°44' W 000°19'4812.3
2018-Apr-16 01:08N 55°24' W 001°03'311.8
2018-Apr-16 00:51N 55°27' W 001°06'411.5
2018-Apr-16 00:30N 55°30' W 001°10'611.2
2018-Apr-16 00:00N 55°35' W 001°16'611.0
2018-Apr-15 23:30N 55°38' W 001°23'510.5
2018-Apr-15 23:00N 55°42' W 001°30'510.3
2018-Apr-15 22:30N 55°45' W 001°38'510.1
2018-Apr-15 22:00N 55°48' W 001°45'510.0
2018-Apr-15 21:30N 55°51' W 001°52'5 9.8
2018-Apr-15 21:00N 55°54' W 001°59'510.1
2018-Apr-15 20:30N 55°57' W 002°06'510.5
2018-Apr-15 20:00N 55°59' W 002°14'510.7
2018-Apr-15 19:30N 56°02' W 002°23'510.6
2018-Apr-15 19:00N 56°04' W 002°31'510.5
2018-Apr-15 18:30N 56°06' W 002°40'611.5
2018-Apr-15 18:00N 56°06' W 002°50'612.2
2018-Apr-15 17:30N 56°03' W 003°00'510.7
2018-Apr-15 17:00N 56°03' W 003°10'612.1
2018-Apr-15 16:30N 56°01' W 003°20'7 0.2
2018-Apr-14 13:12N 56°02' W 003°32'2 9.2
2018-Apr-14 12:58N 56°01' W 003°28'511.6
2018-Apr-14 12:30N 56°01' W 003°19'612.5
2018-Apr-14 12:00N 56°03' W 003°08'1 1.5
2018-Apr-14 11:29N 56°02' W 003°06'0 0.1
2018-Apr-14 10:59N 56°02' W 003°06'0 0.0
2018-Apr-14 10:29N 56°02' W 003°06'0 0.0
2018-Apr-14 09:59N 56°02' W 003°06'0 0.0
2018-Apr-14 09:29N 56°02' W 003°06'0 0.0
2018-Apr-14 08:59N 56°02' W 003°06'0 0.0
2018-Apr-14 08:29N 56°02' W 003°06'0 0.0
2018-Apr-14 07:59N 56°02' W 003°06'0 0.0
2018-Apr-14 07:29N 56°02' W 003°06'0 0.0
2018-Apr-14 06:59N 56°02' W 003°06'0 0.0
2018-Apr-14 06:29N 56°02' W 003°06'0 0.0
2018-Apr-14 05:59N 56°02' W 003°06'0 0.1
2018-Apr-14 05:29N 56°02' W 003°06'0 0.0
2018-Apr-14 04:59N 56°02' W 003°06'0 0.0
2018-Apr-14 04:29N 56°02' W 003°06'0 0.0
2018-Apr-14 03:59N 56°02' W 003°06'0 0.0
2018-Apr-14 03:29N 56°02' W 003°06'  
Track history (hours):
 
Tides and Currents Weather Stations Pressure Air Temp Water Temp Dewpoint Dewpoint Depression Visibility Wind Speed Wind Dir Waves Ship Positions

Clipper Saga

Last reported at 2018-Apr-24 03:00 UTC. Time now 2018-Apr-24 03:03 UTC.
Position N 50°44' W 001°03'.

Length 89 m; draft 5.9 m.

Type: Ship (hazmat cat C). MMSI: 246657008.

Date/timePositionNaut miles runAvg speedWind from/ knotsBaromVisibWave heightAir tempDewpointWater temp
2018-Apr-24 03:00N 50°44' W 001°03'612.2
2018-Apr-24 02:30N 50°46' W 001°12'5 9.2
2018-Apr-24 02:00N 50°48' W 001°17'2 4.4
2018-Apr-24 01:28N 50°50' W 001°20'0 0.0
2018-Apr-24 00:58N 50°50' W 001°20'0 0.0
2018-Apr-24 00:22N 50°50' W 001°20'0 0.0
2018-Apr-23 23:37N 50°50' W 001°20'0 0.0
2018-Apr-23 23:28N 50°50' W 001°20'0 0.0
2018-Apr-23 22:55N 50°50' W 001°20'0 0.0
2018-Apr-23 22:25N 50°50' W 001°20'0 0.0
2018-Apr-23 21:58N 50°50' W 001°20'0 0.0
2018-Apr-23 21:28N 50°50' W 001°20'0 0.0
2018-Apr-23 20:49N 50°50' W 001°20'0 0.0
2018-Apr-23 20:19N 50°50' W 001°20'0 0.0
2018-Apr-23 19:49N 50°50' W 001°20'0 0.0
2018-Apr-23 19:22N 50°50' W 001°20'0 0.0
2018-Apr-23 18:52N 50°50' W 001°20'0 0.0
2018-Apr-23 18:22N 50°50' W 001°20'0 0.0
2018-Apr-23 17:52N 50°50' W 001°20'0 0.0
2018-Apr-23 17:28N 50°50' W 001°20'0 0.0
2018-Apr-23 16:52N 50°50' W 001°20'0 0.0
2018-Apr-23 16:25N 50°50' W 001°20'0 0.0
2018-Apr-23 15:58N 50°50' W 001°20'0 0.0
2018-Apr-23 15:25N 50°50' W 001°20'0 0.0
2018-Apr-23 14:55N 50°50' W 001°20'0 0.0
2018-Apr-23 14:25N 50°50' W 001°20'0 0.0
2018-Apr-23 13:58N 50°50' W 001°20'0 0.0
2018-Apr-23 13:28N 50°50' W 001°20'0 0.0
2018-Apr-23 12:58N 50°50' W 001°20'0 0.0
2018-Apr-23 12:28N 50°50' W 001°20'0 0.0
2018-Apr-23 11:58N 50°50' W 001°20'0 0.0
2018-Apr-23 11:28N 50°50' W 001°20'0 0.0
2018-Apr-23 10:58N 50°50' W 001°20'0 0.0
2018-Apr-23 10:28N 50°50' W 001°20'0 0.0
2018-Apr-23 09:58N 50°50' W 001°20'0 0.0
2018-Apr-23 09:28N 50°50' W 001°20'0 0.0
2018-Apr-23 08:58N 50°50' W 001°20'0 0.0
2018-Apr-23 08:28N 50°50' W 001°20'0 0.0
2018-Apr-23 07:58N 50°50' W 001°20'0 0.0
2018-Apr-23 07:28N 50°50' W 001°20'0 0.0
2018-Apr-23 06:58N 50°50' W 001°20'0 0.0
2018-Apr-23 06:24N 50°50' W 001°20'1 1.3
2018-Apr-23 06:00N 50°50' W 001°19'4 7.8
2018-Apr-23 05:30N 50°46' W 001°16'713.2
2018-Apr-23 05:00N 50°45' W 001°06'3 5.3
2018-Apr-23 04:30N 50°43' W 001°03'0 0.0
2018-Apr-23 03:59N 50°43' W 001°03'0 0.0
2018-Apr-23 03:29N 50°43' W 001°03'0 0.1
2018-Apr-23 02:59N 50°43' W 001°03'0 0.0
2018-Apr-23 02:29N 50°43' W 001°03'0 0.0
2018-Apr-23 01:59N 50°43' W 001°03'0 0.0
2018-Apr-23 01:29N 50°43' W 001°03'0 0.0
2018-Apr-23 00:59N 50°43' W 001°03'0 0.0
2018-Apr-23 00:29N 50°43' W 001°03'0 0.0
2018-Apr-22 23:59N 50°43' W 001°03'0 0.0
2018-Apr-22 23:29N 50°43' W 001°03'0 0.0
2018-Apr-22 22:59N 50°43' W 001°03'0 0.0
2018-Apr-22 22:29N 50°43' W 001°03'0 0.0
2018-Apr-22 21:59N 50°43' W 001°03'0 0.0
2018-Apr-22 21:29N 50°43' W 001°03'0 0.0
2018-Apr-22 20:59N 50°43' W 001°03'0 0.0
2018-Apr-22 20:29N 50°43' W 001°03'0 0.0
2018-Apr-22 19:59N 50°43' W 001°03'0 0.0
2018-Apr-22 19:29N 50°43' W 001°03'0 0.0
2018-Apr-22 18:59N 50°43' W 001°03'0 0.1
2018-Apr-22 18:29N 50°43' W 001°03'0 0.1
2018-Apr-22 17:59N 50°43' W 001°03'0 0.0
2018-Apr-22 17:29N 50°43' W 001°03'0 0.0
2018-Apr-22 16:59N 50°43' W 001°03'1 3.0
2018-Apr-22 16:30N 50°43' W 001°01'611.1
2018-Apr-22 16:00N 50°39' W 000°55'611.1
2018-Apr-22 15:30N 50°38' W 000°46'510.6
2018-Apr-22 15:00N 50°37' W 000°38'510.4
2018-Apr-22 14:30N 50°36' W 000°30'5 9.9
2018-Apr-22 14:00N 50°35' W 000°22'5 9.3
2018-Apr-22 13:30N 50°34' W 000°15'5 9.6
2018-Apr-22 13:00N 50°33' W 000°08'5 9.3
2018-Apr-22 12:30N 50°33' W 000°00'5 9.6
2018-Apr-22 12:00N 50°34' E 000°07'510.0
2018-Apr-22 11:30N 50°35' E 000°14'510.5
2018-Apr-22 11:00N 50°36' E 000°22'611.2
2018-Apr-22 10:30N 50°38' E 000°31'611.6
2018-Apr-22 10:00N 50°40' E 000°39'612.1
2018-Apr-22 09:31N 50°44' E 000°47'612.6
2018-Apr-22 09:00N 50°48' E 000°55'712.6
2018-Apr-22 08:28N 50°52' E 001°04'912.3
2018-Apr-22 07:44N 50°58' E 001°15'311.9
2018-Apr-22 07:30N 50°59' E 001°18'611.3
2018-Apr-22 07:00N 51°03' E 001°25'510.8
2018-Apr-22 06:30N 51°07' E 001°31'5 9.8
2018-Apr-22 06:00N 51°10' E 001°37'5 9.5
2018-Apr-22 05:30N 51°12' E 001°43'5 9.7
2018-Apr-22 05:00N 51°16' E 001°48'5 9.8
2018-Apr-22 04:30N 51°20' E 001°52'510.3
2018-Apr-22 04:01N 51°25' E 001°56'510.9
2018-Apr-22 03:31N 51°29' E 002°01'611.3
2018-Apr-22 03:00N 51°33' E 002°08'611.9
2018-Apr-22 02:29N 51°38' E 002°14'612.5
2018-Apr-22 02:00N 51°42' E 002°21'713.3
2018-Apr-22 01:29N 51°48' E 002°28'713.4
2018-Apr-22 00:59N 51°52' E 002°36'713.5
2018-Apr-22 00:29N 51°57' E 002°43'613.2
2018-Apr-22 00:00N 52°01' E 002°52'612.9
2018-Apr-21 23:30N 52°02' E 003°02'712.8
2018-Apr-21 22:58N 52°02' E 003°13'612.6
2018-Apr-21 22:29N 52°03' E 003°23'612.5
2018-Apr-21 22:01N 52°04' E 003°32'612.2
2018-Apr-21 21:30N 52°04' E 003°42'611.9
2018-Apr-21 21:00N 52°04' E 003°52'5 9.8
2018-Apr-21 20:30N 52°01' E 003°59'612.3
2018-Apr-21 20:00N 51°58' E 004°08'611.8
2018-Apr-21 19:30N 51°55' E 004°15'4 6.3
2018-Apr-21 18:53N 51°54' E 004°21'0 0.0
2018-Apr-20 15:24N 51°54' E 004°21'1 1.4
2018-Apr-20 15:00N 51°54' E 004°21'5 9.5
2018-Apr-20 14:30N 51°56' E 004°13'510.5
2018-Apr-20 14:00N 51°59' E 004°06'510.5
2018-Apr-20 13:30N 52°00' E 003°58'510.9
2018-Apr-20 13:00N 51°60' E 003°49'4 7.8
2018-Apr-20 12:30N 51°57' E 003°45'0 0.3
2018-Apr-20 11:56N 51°57' E 003°45'0 0.0
2018-Apr-20 11:29N 51°57' E 003°45'0 0.0
2018-Apr-20 10:56N 51°57' E 003°45'0 0.1
2018-Apr-20 10:26N 51°57' E 003°45'0 0.0
2018-Apr-20 09:59N 51°57' E 003°45'0 0.1
2018-Apr-20 09:26N 51°57' E 003°45'0 0.2
2018-Apr-20 08:59N 51°57' E 003°45'0 0.1
2018-Apr-20 08:29N 51°57' E 003°45'0 0.0
2018-Apr-20 07:50N 51°57' E 003°45'0 0.0
2018-Apr-20 07:26N 51°57' E 003°45'0 0.0
2018-Apr-20 06:59N 51°57' E 003°45'0 0.0
2018-Apr-20 06:29N 51°57' E 003°45'0 0.0
2018-Apr-20 05:56N 51°57' E 003°45'0 0.0
2018-Apr-20 05:29N 51°57' E 003°45'0 0.0
2018-Apr-20 04:59N 51°57' E 003°45'0 0.0
2018-Apr-20 04:29N 51°57' E 003°45'0 0.0
2018-Apr-20 03:53N 51°57' E 003°45'0 0.0
2018-Apr-20 03:29N 51°57' E 003°45'0 0.1
2018-Apr-20 02:53N 51°57' E 003°45'0 0.1
2018-Apr-20 02:29N 51°57' E 003°45'0 0.0
2018-Apr-20 01:59N 51°57' E 003°45'0 0.1
2018-Apr-20 01:26N 51°57' E 003°45'0 0.0
2018-Apr-20 00:59N 51°57' E 003°45'0 0.0
2018-Apr-20 00:29N 51°57' E 003°45'0 0.0
2018-Apr-19 23:38N 51°57' E 003°45'0 0.0
2018-Apr-19 23:26N 51°57' E 003°45'0 0.0
2018-Apr-19 22:59N 51°57' E 003°45'0 0.0
2018-Apr-19 22:29N 51°57' E 003°45'0 0.0
2018-Apr-19 21:56N 51°57' E 003°45'0 0.0
2018-Apr-19 21:26N 51°57' E 003°45'0 0.0
2018-Apr-19 20:56N 51°57' E 003°45'0 0.1
2018-Apr-19 19:08N 51°57' E 003°45'0 0.0
2018-Apr-19 18:56N 51°57' E 003°45'0 0.0
2018-Apr-19 18:20N 51°57' E 003°45'0 0.0
2018-Apr-19 17:59N 51°57' E 003°45'0 0.0
2018-Apr-19 17:29N 51°57' E 003°45'0 0.0
2018-Apr-19 16:56N 51°57' E 003°45'0 0.0
2018-Apr-19 16:29N 51°57' E 003°45'0 0.0
2018-Apr-19 15:59N 51°57' E 003°45'0 0.0
2018-Apr-19 15:20N 51°57' E 003°45'0 0.0
2018-Apr-19 14:59N 51°57' E 003°45'0 0.1
2018-Apr-19 14:26N 51°57' E 003°45'0 0.1
2018-Apr-19 13:59N 51°57' E 003°45'0 0.0
2018-Apr-19 13:26N 51°57' E 003°45'0 0.0
2018-Apr-19 12:56N 51°57' E 003°45'0 0.0
2018-Apr-19 12:29N 51°57' E 003°45'0 0.1
2018-Apr-19 11:50N 51°57' E 003°45'0 0.0
2018-Apr-19 11:26N 51°57' E 003°45'0 0.0
2018-Apr-19 10:56N 51°57' E 003°45'0 0.0
2018-Apr-19 10:29N 51°57' E 003°45'0 0.0
2018-Apr-19 09:59N 51°57' E 003°45'0 0.0
2018-Apr-19 09:26N 51°57' E 003°45'0 0.0
2018-Apr-19 08:56N 51°57' E 003°45'0 0.1
2018-Apr-19 08:26N 51°57' E 003°45'0 0.0
2018-Apr-19 07:53N 51°57' E 003°45'0 0.0
2018-Apr-19 07:29N 51°57' E 003°45'0 0.1
2018-Apr-19 06:59N 51°57' E 003°45'0 0.1
2018-Apr-19 06:26N 51°57' E 003°45'0 0.1
2018-Apr-19 05:53N 51°57' E 003°45'0 0.0
2018-Apr-19 05:29N 51°57' E 003°45'0 0.0
2018-Apr-19 04:59N 51°57' E 003°45'0 0.0
2018-Apr-19 04:29N 51°57' E 003°45'0 0.0
2018-Apr-19 03:59N 51°57' E 003°45'0 0.0
2018-Apr-19 03:29N 51°57' E 003°45'0 0.0
2018-Apr-19 02:59N 51°57' E 003°45'0 0.1
2018-Apr-19 02:29N 51°57' E 003°45'0 0.1
2018-Apr-19 01:59N 51°57' E 003°45'0 0.1
2018-Apr-19 01:29N 51°57' E 003°45'0 0.1
2018-Apr-19 00:59N 51°57' E 003°45'0 0.0
2018-Apr-19 00:29N 51°57' E 003°45'0 0.0
2018-Apr-18 23:47N 51°57' E 003°45'0 0.0
2018-Apr-18 23:26N 51°57' E 003°45'0 0.0
2018-Apr-18 22:59N 51°57' E 003°45'0 0.0
2018-Apr-18 22:29N 51°57' E 003°45'0 0.0
2018-Apr-18 21:59N 51°57' E 003°45'0 0.0
2018-Apr-18 21:29N 51°57' E 003°45'0 0.0
2018-Apr-18 20:59N 51°57' E 003°45'0 0.2
2018-Apr-18 20:30N 51°57' E 003°44'5 9.4
2018-Apr-18 20:00N 51°57' E 003°37'4 8.6
2018-Apr-18 19:30N 51°57' E 003°30'510.3
2018-Apr-18 19:00N 51°55' E 003°22'510.7
2018-Apr-18 18:30N 51°54' E 003°13'611.7
2018-Apr-18 18:00N 51°53' E 003°04'610.0
2018-Apr-18 17:25N 51°52' E 002°55'5 9.9
2018-Apr-18 16:53N 51°54' E 002°47'610.5
2018-Apr-18 16:21N 51°57' E 002°39'6 2.1
2018-Apr-18 13:18N 52°01' E 002°31'310.2
2018-Apr-18 13:00N 51°59' E 002°35'610.0
2018-Apr-18 12:23N 51°56' E 002°43'410.2
2018-Apr-18 12:00N 51°54' E 002°49'611.2
2018-Apr-18 11:28N 51°53' E 002°58'612.6
2018-Apr-18 11:00N 51°51' E 003°08'611.6
2018-Apr-18 10:29N 51°46' E 003°13'5 9.7
2018-Apr-18 10:00N 51°42' E 003°17'611.5
2018-Apr-18 09:28N 51°37' E 003°22'511.1
2018-Apr-18 09:00N 51°32' E 003°26'511.0
2018-Apr-18 08:30N 51°28' E 003°31'5 9.2
2018-Apr-18 08:00N 51°26' E 003°38'612.3
2018-Apr-18 07:31N 51°22' E 003°45'4 6.2
2018-Apr-18 06:56N 51°20' E 003°49'0 0.1
2018-Apr-18 06:29N 51°20' E 003°49'3 5.3
2018-Apr-18 06:00N 51°17' E 003°50'2 3.7
2018-Apr-18 05:30N 51°15' E 003°50'3 6.7
2018-Apr-18 05:00N 51°12' E 003°48'3 6.9
2018-Apr-18 04:30N 51°09' E 003°47'0 0.2
2018-Apr-18 03:59N 51°09' E 003°47'0 0.0
2018-Apr-18 03:29N 51°09' E 003°47'0 0.0
2018-Apr-18 02:59N 51°09' E 003°47'0 0.0
2018-Apr-18 02:29N 51°09' E 003°47'0 0.0
2018-Apr-18 01:59N 51°09' E 003°47'0 0.0
2018-Apr-17 12:35N 51°09' E 003°47'0 0.1
2018-Apr-17 12:29N 51°09' E 003°47'0 0.0
2018-Apr-17 11:59N 51°09' E 003°47'0 0.0
2018-Apr-17 11:29N 51°09' E 003°47'0 0.0
2018-Apr-17 10:40N 51°09' E 003°47'0 0.0
2018-Apr-17 10:31N 51°09' E 003°47'1 1.2
2018-Apr-17 10:00N 51°09' E 003°47'3 6.8
2018-Apr-17 09:30N 51°13' E 003°48'2 4.4
2018-Apr-17 09:01N 51°15' E 003°49'3 6.8
2018-Apr-17 08:30N 51°18' E 003°50'2 3.3
2018-Apr-17 08:00N 51°20' E 003°49'0 0.0
2018-Apr-17 07:30N 51°20' E 003°49'1 1.0
2018-Apr-17 07:00N 51°20' E 003°49'1 2.0
2018-Apr-17 06:30N 51°21' E 003°48'3 6.5
2018-Apr-17 06:00N 51°23' E 003°43'4 7.4
2018-Apr-17 05:30N 51°25' E 003°39'4 7.3
2018-Apr-17 05:00N 51°27' E 003°34'3 6.6
2018-Apr-17 04:30N 51°29' E 003°30'4 7.2
2018-Apr-17 03:59N 51°32' E 003°26'5 7.6
2018-Apr-17 03:21N 51°36' E 003°23'3 8.5
2018-Apr-17 03:00N 51°38' E 003°20'5 8.6
2018-Apr-17 02:28N 51°42' E 003°16'4 7.8
2018-Apr-17 02:00N 51°46' E 003°14'5 8.2
2018-Apr-17 01:24N 51°49' E 003°08'3 6.9
2018-Apr-17 01:00N 51°51' E 003°04'16210.3
2018-Apr-16 09:14N 54°02' E 000°26'210.3
2018-Apr-16 09:00N 54°04' E 000°24'510.6
2018-Apr-16 08:30N 54°09' E 000°19'510.9
2018-Apr-16 08:00N 54°13' E 000°14'611.0
2018-Apr-16 07:30N 54°18' E 000°09'611.5
2018-Apr-16 07:00N 54°23' E 000°04'611.9
2018-Apr-16 06:30N 54°28' W 000°02'612.4
2018-Apr-16 06:00N 54°33' W 000°08'612.6
2018-Apr-16 05:30N 54°38' W 000°13'612.5
2018-Apr-16 05:00N 54°44' W 000°19'4812.3
2018-Apr-16 01:08N 55°24' W 001°03'311.8
2018-Apr-16 00:51N 55°27' W 001°06'411.5
2018-Apr-16 00:30N 55°30' W 001°10'611.2
2018-Apr-16 00:00N 55°35' W 001°16'611.0
2018-Apr-15 23:30N 55°38' W 001°23'510.5
2018-Apr-15 23:00N 55°42' W 001°30'510.3
2018-Apr-15 22:30N 55°45' W 001°38'510.1
2018-Apr-15 22:00N 55°48' W 001°45'510.0
2018-Apr-15 21:30N 55°51' W 001°52'5 9.8
2018-Apr-15 21:00N 55°54' W 001°59'510.1
2018-Apr-15 20:30N 55°57' W 002°06'510.5
2018-Apr-15 20:00N 55°59' W 002°14'510.7
2018-Apr-15 19:30N 56°02' W 002°23'510.6
2018-Apr-15 19:00N 56°04' W 002°31'510.5
2018-Apr-15 18:30N 56°06' W 002°40'611.5
2018-Apr-15 18:00N 56°06' W 002°50'612.2
2018-Apr-15 17:30N 56°03' W 003°00'510.7
2018-Apr-15 17:00N 56°03' W 003°10'612.1
2018-Apr-15 16:30N 56°01' W 003°20'7 0.2
2018-Apr-14 13:12N 56°02' W 003°32'2 9.2
2018-Apr-14 12:58N 56°01' W 003°28'511.6
2018-Apr-14 12:30N 56°01' W 003°19'612.5
2018-Apr-14 12:00N 56°03' W 003°08'1 1.5
2018-Apr-14 11:29N 56°02' W 003°06'0 0.1
2018-Apr-14 10:59N 56°02' W 003°06'0 0.0
2018-Apr-14 10:29N 56°02' W 003°06'0 0.0
2018-Apr-14 09:59N 56°02' W 003°06'0 0.0
2018-Apr-14 09:29N 56°02' W 003°06'0 0.0
2018-Apr-14 08:59N 56°02' W 003°06'0 0.0
2018-Apr-14 08:29N 56°02' W 003°06'0 0.0
2018-Apr-14 07:59N 56°02' W 003°06'0 0.0
2018-Apr-14 07:29N 56°02' W 003°06'0 0.0
2018-Apr-14 06:59N 56°02' W 003°06'0 0.0
2018-Apr-14 06:29N 56°02' W 003°06'0 0.0
2018-Apr-14 05:59N 56°02' W 003°06'0 0.1
2018-Apr-14 05:29N 56°02' W 003°06'0 0.0
2018-Apr-14 04:59N 56°02' W 003°06'0 0.0
2018-Apr-14 04:29N 56°02' W 003°06'0 0.0
2018-Apr-14 03:59N 56°02' W 003°06'0 0.0
2018-Apr-14 03:29N 56°02' W 003°06'  

Dump ship's entire track history